createdAt,value
2023-01-12T00:00:00.145Z,997.33
2023-01-12T00:05:00.153Z,997.28
2023-01-12T00:10:00.133Z,997.3
2023-01-12T00:15:00.165Z,997.26
2023-01-12T00:20:00.165Z,997.28
2023-01-12T00:25:00.103Z,997.41
2023-01-12T00:30:00.145Z,997.5
2023-01-12T00:35:00.169Z,997.61
2023-01-12T00:40:02.762Z,997.48
2023-01-12T00:45:00.116Z,997.57
2023-01-12T00:50:00.092Z,997.65
2023-01-12T00:55:00.275Z,997.54
2023-01-12T01:00:00.503Z,997.48
2023-01-12T01:05:00.142Z,997.57
2023-01-12T01:10:00.152Z,997.6
2023-01-12T01:15:00.125Z,997.57
2023-01-12T01:20:00.101Z,997.51
2023-01-12T01:25:00.170Z,997.54
2023-01-12T01:30:00.122Z,997.38
2023-01-12T01:35:00.139Z,997.22
2023-01-12T01:40:00.124Z,997.24
2023-01-12T01:45:00.117Z,997.03
2023-01-12T01:50:00.177Z,996.87
2023-01-12T01:55:00.147Z,996.95
2023-01-12T02:00:00.177Z,996.94
2023-01-12T02:05:00.118Z,996.93
2023-01-12T02:10:00.117Z,996.86
2023-01-12T02:15:00.172Z,996.62
2023-01-12T02:20:00.175Z,996.53
2023-01-12T02:25:00.117Z,996.42
2023-01-12T02:30:00.155Z,996.35
2023-01-12T02:35:00.130Z,996.25
2023-01-12T02:40:00.140Z,996.21
2023-01-12T02:45:00.108Z,996.18
2023-01-12T02:50:00.121Z,996.11
2023-01-12T02:55:00.160Z,996.14
2023-01-12T03:00:00.210Z,996
2023-01-12T03:05:00.090Z,996
2023-01-12T03:10:00.122Z,995.99
2023-01-12T03:15:00.163Z,995.9
2023-01-12T03:20:00.123Z,995.8
2023-01-12T03:25:00.154Z,995.84
2023-01-12T03:30:00.185Z,995.96
2023-01-12T03:35:00.127Z,995.84
2023-01-12T03:40:00.128Z,995.87
2023-01-12T03:45:00.148Z,995.93
2023-01-12T03:50:00.112Z,995.85
2023-01-12T03:55:00.162Z,995.75
2023-01-12T04:00:00.170Z,995.67
2023-01-12T04:05:00.145Z,995.68
2023-01-12T04:10:00.143Z,995.49
2023-01-12T04:15:00.160Z,995.41
2023-01-12T04:20:00.130Z,995.3
2023-01-12T04:25:00.129Z,995.28
2023-01-12T04:30:00.146Z,994.74
2023-01-12T04:35:00.150Z,994.69
2023-01-12T04:40:00.102Z,994.74
2023-01-12T04:45:00.172Z,994.64
2023-01-12T04:50:00.118Z,994.73
2023-01-12T04:55:00.147Z,994.78
2023-01-12T05:00:00.163Z,994.88
2023-01-12T05:05:00.096Z,994.76
2023-01-12T05:10:00.150Z,994.7
2023-01-12T05:15:00.148Z,994.7
2023-01-12T05:20:00.957Z,994.75
2023-01-12T05:25:00.144Z,994.63
2023-01-12T05:30:00.109Z,994.68
2023-01-12T05:35:00.185Z,994.65
2023-01-12T05:40:00.094Z,994.63
2023-01-12T05:45:00.114Z,994.5
2023-01-12T05:50:00.106Z,994.52
2023-01-12T05:55:00.201Z,994.57
2023-01-12T06:00:00.164Z,994.38
2023-01-12T06:05:00.180Z,994.4
2023-01-12T06:10:00.107Z,994.37
2023-01-12T06:15:00.288Z,994.29
2023-01-12T06:20:00.132Z,994.28
2023-01-12T06:25:00.112Z,994.12
2023-01-12T06:30:00.116Z,994.09
2023-01-12T06:35:06.970Z,994.05
2023-01-12T06:40:00.133Z,994.12
2023-01-12T06:45:00.103Z,994.06
2023-01-12T06:50:00.147Z,994.15
2023-01-12T06:55:00.163Z,994.02
2023-01-12T07:00:00.121Z,994.01
2023-01-12T07:05:00.085Z,994
2023-01-12T07:10:00.102Z,994.09
2023-01-12T07:15:00.195Z,994.06
2023-01-12T07:20:00.129Z,994.03
2023-01-12T07:25:00.122Z,993.94
2023-01-12T07:30:00.121Z,993.7
2023-01-12T07:35:00.138Z,993.78
2023-01-12T07:40:00.113Z,993.84
2023-01-12T07:45:00.116Z,993.97
2023-01-12T07:50:00.126Z,993.88
2023-01-12T07:55:00.157Z,993.8
2023-01-12T08:00:00.149Z,993.85
2023-01-12T08:05:00.141Z,993.62
2023-01-12T08:10:00.125Z,993.67
2023-01-12T08:15:00.159Z,993.71
2023-01-12T08:20:00.116Z,993.63
2023-01-12T08:25:00.132Z,993.59
2023-01-12T08:30:00.155Z,993.55
2023-01-12T08:35:01.316Z,993.48
2023-01-12T08:40:00.113Z,993.34
2023-01-12T08:45:00.132Z,993.23
2023-01-12T08:50:00.114Z,993.25
2023-01-12T08:55:00.285Z,993.23
2023-01-12T09:00:00.131Z,993.3
2023-01-12T09:05:00.126Z,993.14
2023-01-12T09:10:00.150Z,993.25
2023-01-12T09:15:00.138Z,993.16
2023-01-12T09:20:00.162Z,993.05
2023-01-12T09:25:00.133Z,992.87
2023-01-12T09:30:00.100Z,992.78
2023-01-12T09:35:00.191Z,992.77
2023-01-12T09:40:00.093Z,992.62
2023-01-12T09:45:00.121Z,992.45
2023-01-12T09:50:08.618Z,992.39
2023-01-12T09:55:00.142Z,992.19
2023-01-12T10:00:00.195Z,992.23
2023-01-12T10:05:00.133Z,992.37
2023-01-12T10:10:00.137Z,992.58
2023-01-12T10:15:00.133Z,992.56
2023-01-12T10:20:00.184Z,992.53
2023-01-12T10:25:00.141Z,992.45
2023-01-12T10:30:00.127Z,992.3
2023-01-12T10:35:00.150Z,992.24
2023-01-12T10:40:00.230Z,992.23
2023-01-12T10:45:00.145Z,992.24
2023-01-12T10:50:00.119Z,992.17
2023-01-12T10:55:00.146Z,992.07
2023-01-12T11:00:00.179Z,992.16
2023-01-12T11:05:00.124Z,992.15
2023-01-12T11:10:00.156Z,992.02
2023-01-12T11:15:00.154Z,991.93
2023-01-12T11:20:00.135Z,991.96
2023-01-12T11:25:00.108Z,991.82
2023-01-12T11:30:00.144Z,991.81
2023-01-12T11:35:00.150Z,991.85
2023-01-12T11:40:00.134Z,991.65
2023-01-12T11:45:00.152Z,991.67
2023-01-12T11:50:00.108Z,991.7
2023-01-12T11:55:00.147Z,991.64
2023-01-12T12:00:00.125Z,991.75
2023-01-12T12:05:00.101Z,991.6
2023-01-12T12:10:00.140Z,991.58
2023-01-12T12:15:00.122Z,991.59
2023-01-12T12:20:00.134Z,991.44
2023-01-12T12:25:00.150Z,991.49
2023-01-12T12:30:00.133Z,991.42
2023-01-12T12:35:00.143Z,991.48
2023-01-12T12:40:00.150Z,991.44
2023-01-12T12:45:00.099Z,991.48
2023-01-12T12:50:00.135Z,991.43
2023-01-12T12:55:00.130Z,991.45
2023-01-12T13:00:00.233Z,991.48
2023-01-12T13:05:00.131Z,991.46
2023-01-12T13:10:00.153Z,991.44
2023-01-12T13:15:00.143Z,991.42
2023-01-12T13:20:01.441Z,991.37
2023-01-12T13:25:00.144Z,991.45
2023-01-12T13:30:00.122Z,991.34
2023-01-12T13:35:00.137Z,991.34
2023-01-12T13:40:00.169Z,991.41
2023-01-12T13:45:00.108Z,991.39
2023-01-12T13:50:00.151Z,991.37
2023-01-12T13:55:00.148Z,991.37
2023-01-12T14:00:00.136Z,991.34
2023-01-12T14:05:00.155Z,991.37
2023-01-12T14:10:00.166Z,991.28
2023-01-12T14:15:00.138Z,991.34
2023-01-12T14:20:00.133Z,991.46
2023-01-12T14:25:00.187Z,991.41
2023-01-12T14:30:00.174Z,991.3
2023-01-12T14:35:00.183Z,991.33
2023-01-12T14:40:00.170Z,991.33
2023-01-12T14:45:00.135Z,991.22
2023-01-12T14:50:00.162Z,991.24
2023-01-12T14:55:00.204Z,991.33
2023-01-12T15:00:00.124Z,991.14
2023-01-12T15:05:00.162Z,991.24
2023-01-12T15:10:00.104Z,991.34
2023-01-12T15:15:00.166Z,991.3
2023-01-12T15:20:00.113Z,991.4
2023-01-12T15:25:00.142Z,991.32
2023-01-12T15:30:00.173Z,991.53
2023-01-12T15:35:00.172Z,991.33
2023-01-12T15:40:00.140Z,991.39
2023-01-12T15:45:00.115Z,991.38
2023-01-12T15:50:00.115Z,991.45
2023-01-12T15:55:00.183Z,991.4
2023-01-12T16:00:00.170Z,991.41
2023-01-12T16:05:00.168Z,991.48
2023-01-12T16:10:00.150Z,991.41
2023-01-12T16:15:00.145Z,991.44
2023-01-12T16:20:00.168Z,991.47
2023-01-12T16:25:01.112Z,991.5
2023-01-12T16:30:00.152Z,991.47
2023-01-12T16:35:00.163Z,991.49
2023-01-12T16:40:00.262Z,991.37
2023-01-12T16:45:00.154Z,991.4
2023-01-12T16:50:00.304Z,991.47
2023-01-12T16:55:00.125Z,991.51
2023-01-12T17:00:00.242Z,991.5
2023-01-12T17:05:00.108Z,991.47
2023-01-12T17:10:00.167Z,991.53
2023-01-12T17:15:00.168Z,991.43
2023-01-12T17:20:00.142Z,991.44
2023-01-12T17:25:00.108Z,991.45
2023-01-12T17:30:00.179Z,991.47
2023-01-12T17:35:00.142Z,991.42
2023-01-12T17:40:00.142Z,991.35
2023-01-12T17:45:00.143Z,991.87
2023-01-12T17:50:00.155Z,991.83
2023-01-12T17:55:00.154Z,991.78
2023-01-12T18:00:00.274Z,991.71
2023-01-12T18:05:00.103Z,991.75
2023-01-12T18:10:00.147Z,991.71
2023-01-12T18:15:00.162Z,991.64
2023-01-12T18:20:00.136Z,991.63
2023-01-12T18:25:00.102Z,991.57
2023-01-12T18:30:00.180Z,991.54
2023-01-12T18:35:00.139Z,991.5
2023-01-12T18:40:00.110Z,991.47
2023-01-12T18:45:00.149Z,991.55
2023-01-12T18:50:00.165Z,991.46
2023-01-12T18:55:00.157Z,990.84
2023-01-12T19:00:00.225Z,990.79
2023-01-12T19:05:00.094Z,990.83
2023-01-12T19:10:00.192Z,990.87
2023-01-12T19:15:00.159Z,990.88
2023-01-12T19:20:00.183Z,990.92
2023-01-12T19:25:00.120Z,990.84
2023-01-12T19:30:00.183Z,990.92
2023-01-12T19:35:10.061Z,990.82
2023-01-12T19:40:01.088Z,990.7
2023-01-12T19:45:00.141Z,990.68
2023-01-12T19:50:00.168Z,990.69
2023-01-12T19:55:00.143Z,990.62
2023-01-12T20:00:00.173Z,990.71
2023-01-12T20:05:00.109Z,990.62
2023-01-12T20:10:00.148Z,990.72
2023-01-12T20:15:00.118Z,990.7
2023-01-12T20:20:00.134Z,990.63
2023-01-12T20:25:00.138Z,990.62
2023-01-12T20:30:00.134Z,990.6
2023-01-12T20:35:00.153Z,990.43
2023-01-12T20:40:00.135Z,990.49
2023-01-12T20:45:00.155Z,990.44
2023-01-12T20:50:00.149Z,990.39
2023-01-12T20:55:00.143Z,990.51
2023-01-12T21:00:00.132Z,990.35
2023-01-12T21:05:00.103Z,990.38
2023-01-12T21:10:00.121Z,990.3
2023-01-12T21:15:00.161Z,990.22
2023-01-12T21:20:00.154Z,990.24
2023-01-12T21:25:00.114Z,990.31
2023-01-12T21:30:00.178Z,990.86
2023-01-12T21:35:00.156Z,990.79
2023-01-12T21:40:00.173Z,990.82
2023-01-12T21:45:00.098Z,990.73
2023-01-12T21:50:00.148Z,990.64
2023-01-12T21:55:00.176Z,990.65
2023-01-12T22:00:00.144Z,990.71
2023-01-12T22:05:00.173Z,990.8
2023-01-12T22:10:00.163Z,990.76
2023-01-12T22:15:00.175Z,990.84
2023-01-12T22:20:00.129Z,990.78
2023-01-12T22:25:00.177Z,990.6
2023-01-12T22:30:00.151Z,990.68
2023-01-12T22:35:00.159Z,990.64
2023-01-12T22:40:00.116Z,990.55
2023-01-12T22:45:00.172Z,990.67
2023-01-12T22:50:00.122Z,990.65
2023-01-12T22:55:00.176Z,990.56
2023-01-12T23:00:00.179Z,990.44
2023-01-12T23:05:00.098Z,990.48
2023-01-12T23:10:00.142Z,990.4
2023-01-12T23:15:00.153Z,990.47
2023-01-12T23:20:00.124Z,990.48
2023-01-12T23:25:00.109Z,990.35
2023-01-12T23:30:00.127Z,990.15
2023-01-12T23:35:00.150Z,990.12
2023-01-12T23:40:00.140Z,990.12
2023-01-12T23:45:00.185Z,990.1
2023-01-12T23:50:00.163Z,989.99
2023-01-12T23:55:00.141Z,990.08
